createdAt,value
2023-03-29T00:02:09.570Z,1.92
2023-03-29T00:06:22.405Z,1.60
2023-03-29T00:10:35.864Z,1.52
2023-03-29T00:14:48.277Z,1.20
2023-03-29T00:19:00.680Z,1.58
2023-03-29T00:23:13.121Z,1.33
2023-03-29T00:27:25.520Z,1.42
2023-03-29T00:31:37.959Z,1.48
2023-03-29T00:35:53.646Z,1.33
2023-03-29T00:40:11.182Z,1.48
2023-03-29T00:45:00.649Z,1.85
2023-03-29T00:49:14.178Z,1.60
2023-03-29T00:53:49.062Z,1.85
2023-03-29T00:58:05.298Z,1.60
2023-03-29T01:02:22.396Z,1.20
2023-03-29T01:11:12.969Z,1.23
2023-03-29T01:15:28.518Z,1.55
2023-03-29T01:19:50.487Z,1.52
2023-03-29T01:24:26.261Z,5.50
2023-03-29T01:28:53.204Z,1.70
2023-03-29T01:33:14.341Z,1.80
2023-03-29T01:37:39.847Z,1.77
2023-03-29T01:42:12.454Z,1.52
2023-03-29T01:46:39.648Z,1.40
2023-03-29T01:51:01.666Z,1.40
2023-03-29T01:55:20.484Z,1.60
2023-03-29T01:59:36.190Z,1.30
2023-03-29T02:03:54.875Z,1.70
2023-03-29T02:08:10.543Z,1.90
2023-03-29T02:12:23.137Z,2.25
2023-03-29T02:16:37.579Z,2.05
2023-03-29T02:20:51.217Z,0.60
2023-03-29T02:25:08.607Z,1.75
2023-03-29T02:29:22.874Z,1.60
2023-03-29T02:34:05.325Z,1.80
2023-03-29T02:38:17.812Z,1.88
2023-03-29T02:42:31.630Z,2.00
2023-03-29T02:46:44.503Z,1.80
2023-03-29T02:51:02.343Z,1.85
2023-03-29T02:55:17.784Z,2.35
2023-03-29T02:59:30.843Z,2.58
2023-03-29T03:03:43.318Z,2.38
2023-03-29T03:07:55.823Z,2.40
2023-03-29T03:12:08.706Z,2.60
2023-03-29T03:16:22.129Z,1.25
2023-03-29T03:20:34.955Z,1.38
2023-03-29T03:24:47.416Z,2.72
2023-03-29T03:29:01.165Z,2.60
2023-03-29T03:33:46.485Z,2.22
2023-03-29T03:38:17.275Z,1.40
2023-03-29T03:42:33.650Z,2.50
2023-03-29T03:46:47.074Z,2.90
2023-03-29T03:50:59.781Z,2.83
2023-03-29T03:55:18.054Z,2.70
2023-03-29T03:59:37.305Z,3.65
2023-03-29T04:03:54.303Z,1.23
2023-03-29T04:08:08.433Z,1.27
2023-03-29T04:12:40.128Z,4.93
2023-03-29T04:16:54.724Z,3.25
2023-03-29T04:21:29.964Z,1.40
2023-03-29T04:25:44.451Z,0.77
2023-03-29T04:30:17.496Z,2.08
2023-03-29T04:34:48.560Z,0.75
2023-03-29T04:39:01.891Z,2.25
2023-03-29T04:43:15.865Z,0.85
2023-03-29T04:47:40.106Z,0.90
2023-03-29T04:52:01.211Z,1.95
2023-03-29T04:56:16.778Z,2.10
2023-03-29T05:01:01.322Z,0.57
2023-03-29T05:05:17.540Z,0.88
2023-03-29T05:09:33.721Z,1.30
2023-03-29T05:13:49.259Z,1.10
2023-03-29T05:18:02.622Z,1.02
2023-03-29T05:22:16.937Z,0.73
2023-03-29T05:26:29.928Z,0.55
2023-03-29T05:30:43.404Z,0.52
2023-03-29T05:35:05.433Z,1.05
2023-03-29T05:39:19.314Z,0.82
2023-03-29T05:43:33.623Z,1.55
2023-03-29T05:47:46.990Z,2.22
2023-03-29T05:52:00.510Z,6.40
2023-03-29T05:56:16.789Z,3.30
2023-03-29T06:00:30.379Z,2.20
2023-03-29T06:04:55.574Z,1.45
2023-03-29T06:09:10.826Z,1.77
2023-03-29T06:13:38.101Z,2.28
2023-03-29T06:17:51.016Z,2.50
2023-03-29T06:22:03.987Z,2.17
2023-03-29T06:26:19.384Z,2.30
2023-03-29T06:30:33.231Z,2.25
2023-03-29T06:34:46.376Z,2.20
2023-03-29T06:39:08.796Z,2.20
2023-03-29T06:43:44.214Z,2.67
2023-03-29T06:48:01.429Z,3.03
2023-03-29T06:52:13.845Z,2.72
2023-03-29T06:56:27.502Z,3.00
2023-03-29T07:00:52.097Z,5.95
2023-03-29T07:05:17.234Z,5.72
2023-03-29T07:09:33.678Z,4.80
2023-03-29T07:14:16.016Z,5.57
2023-03-29T07:18:28.704Z,3.47
2023-03-29T07:22:47.424Z,3.50
2023-03-29T07:27:04.568Z,2.38
2023-03-29T07:31:18.798Z,2.20
2023-03-29T07:35:38.483Z,1.80
2023-03-29T07:39:52.570Z,3.58
2023-03-29T07:44:23.660Z,3.13
2023-03-29T07:48:37.355Z,3.03
2023-03-29T07:52:57.118Z,2.85
2023-03-29T07:57:09.790Z,2.47
2023-03-29T08:01:27.935Z,2.15
2023-03-29T08:06:05.367Z,3.20
2023-03-29T08:10:21.637Z,2.38
2023-03-29T08:15:03.952Z,2.05
2023-03-29T08:19:19.177Z,1.33
2023-03-29T08:23:46.237Z,1.60
2023-03-29T08:28:03.292Z,1.70
2023-03-29T08:32:30.470Z,2.30
2023-03-29T08:36:43.275Z,2.13
2023-03-29T08:41:27.699Z,1.80
2023-03-29T08:46:09.882Z,2.13
2023-03-29T08:50:35.641Z,1.70
2023-03-29T08:54:52.198Z,1.33
2023-03-29T08:59:26.354Z,2.20
2023-03-29T09:03:45.784Z,1.80
2023-03-29T09:08:12.529Z,1.40
2023-03-29T09:12:35.836Z,2.40
2023-03-29T09:17:17.432Z,1.40
2023-03-29T09:21:50.117Z,2.30
2023-03-29T09:26:28.721Z,1.20
2023-03-29T09:31:11.715Z,2.00
2023-03-29T09:35:32.633Z,1.90
2023-03-29T09:39:45.404Z,1.70
2023-03-29T09:44:10.887Z,1.70
2023-03-29T09:48:32.305Z,1.50
2023-03-29T09:52:45.074Z,1.40
2023-03-29T09:57:04.144Z,1.45
2023-03-29T10:01:20.704Z,1.70
2023-03-29T10:05:40.181Z,1.70
2023-03-29T10:09:59.923Z,1.20
2023-03-29T10:14:17.185Z,1.58
2023-03-29T10:18:31.486Z,1.50
2023-03-29T10:22:50.185Z,1.50
2023-03-29T10:27:10.786Z,1.90
2023-03-29T10:31:25.043Z,1.50
2023-03-29T10:35:42.195Z,1.50
2023-03-29T10:39:55.063Z,1.80
2023-03-29T10:44:08.819Z,1.45
2023-03-29T10:48:30.603Z,1.70
2023-03-29T10:52:43.253Z,1.63
2023-03-29T10:56:58.889Z,1.73
2023-03-29T11:01:18.855Z,1.70
2023-03-29T11:10:19.456Z,1.40
2023-03-29T11:14:40.803Z,1.55
2023-03-29T11:19:21.341Z,1.88
2023-03-29T11:23:49.024Z,1.30
2023-03-29T11:28:34.246Z,1.13
2023-03-29T11:33:03.247Z,1.40
2023-03-29T11:37:31.249Z,1.60
2023-03-29T11:41:49.553Z,1.45
2023-03-29T11:46:26.048Z,1.80
2023-03-29T11:51:11.579Z,1.38
2023-03-29T11:55:30.758Z,1.38
2023-03-29T11:59:55.637Z,1.27
2023-03-29T12:04:16.657Z,1.15
2023-03-29T12:08:38.577Z,1.77
2023-03-29T12:13:03.636Z,1.13
2023-03-29T12:17:21.187Z,1.70
2023-03-29T12:21:35.728Z,1.40
2023-03-29T12:26:12.334Z,1.20
2023-03-29T12:30:56.343Z,1.50
2023-03-29T12:35:34.431Z,1.60
2023-03-29T12:40:19.446Z,1.60
2023-03-29T12:45:00.154Z,1.60
2023-03-29T12:49:38.456Z,1.15
2023-03-29T12:53:54.004Z,1.00
2023-03-29T12:58:21.478Z,1.17
2023-03-29T13:02:37.394Z,1.45
2023-03-29T13:06:51.139Z,1.00
2023-03-29T13:11:06.578Z,1.95
2023-03-29T13:15:19.178Z,0.90
2023-03-29T13:19:52.252Z,1.17
2023-03-29T13:24:46.311Z,1.42
2023-03-29T13:29:34.738Z,1.38
2023-03-29T13:34:05.825Z,1.40
2023-03-29T13:38:32.028Z,1.55
2023-03-29T13:42:46.739Z,1.20
2023-03-29T13:47:30.437Z,1.35
2023-03-29T13:51:54.331Z,1.45
2023-03-29T13:56:11.342Z,1.10
2023-03-29T14:00:51.621Z,1.17
2023-03-29T14:05:06.512Z,1.20
2023-03-29T14:09:20.742Z,1.30
2023-03-29T14:13:34.580Z,1.40
2023-03-29T14:17:47.925Z,1.63
2023-03-29T14:22:02.441Z,1.50
2023-03-29T14:26:20.212Z,1.50
2023-03-29T14:30:33.164Z,1.50
2023-03-29T14:34:50.345Z,1.92
2023-03-29T14:39:18.954Z,2.10
2023-03-29T14:43:32.350Z,1.40
2023-03-29T14:47:46.328Z,1.40
2023-03-29T14:51:59.553Z,1.58
2023-03-29T14:56:15.953Z,1.85
2023-03-29T15:00:35.223Z,1.33
2023-03-29T15:04:56.053Z,1.88
2023-03-29T15:09:18.354Z,1.63
2023-03-29T15:13:31.335Z,1.88
2023-03-29T15:17:52.339Z,1.73
2023-03-29T15:22:11.449Z,1.95
2023-03-29T15:26:31.392Z,1.58
2023-03-29T15:30:49.449Z,3.15
2023-03-29T15:35:10.864Z,2.60
2023-03-29T15:39:23.652Z,2.40
2023-03-29T15:43:36.609Z,2.90
2023-03-29T15:47:50.699Z,3.15
2023-03-29T15:52:03.392Z,3.75
2023-03-29T15:56:19.119Z,2.35
2023-03-29T16:00:31.876Z,6.35
2023-03-29T16:04:44.611Z,2.70
2023-03-29T16:08:57.498Z,2.35
2023-03-29T16:13:13.843Z,3.17
2023-03-29T16:17:26.311Z,4.97
2023-03-29T16:21:38.894Z,3.63
2023-03-29T16:25:51.555Z,4.45
2023-03-29T16:30:04.466Z,5.75
2023-03-29T16:34:19.057Z,5.50
2023-03-29T16:38:31.703Z,5.47
2023-03-29T16:42:44.675Z,4.00
2023-03-29T16:46:58.688Z,7.00
2023-03-29T16:51:11.688Z,6.30
2023-03-29T16:55:24.186Z,6.20
2023-03-29T16:59:37.033Z,5.90
2023-03-29T17:03:49.582Z,5.93
2023-03-29T17:08:02.569Z,8.68
2023-03-29T17:12:15.072Z,8.13
2023-03-29T17:16:29.274Z,8.38
2023-03-29T17:20:41.881Z,7.20
2023-03-29T17:24:54.384Z,6.60
2023-03-29T17:29:06.849Z,6.43
2023-03-29T17:33:22.831Z,4.80
2023-03-29T17:37:36.385Z,5.82
2023-03-29T17:41:48.711Z,5.95
2023-03-29T17:46:01.515Z,6.20
2023-03-29T17:50:14.274Z,8.85
2023-03-29T17:54:27.264Z,9.65
2023-03-29T17:58:39.757Z,10.88
2023-03-29T18:02:52.197Z,13.77
2023-03-29T18:07:04.775Z,22.23
2023-03-29T18:11:22.647Z,22.25
2023-03-29T18:15:34.996Z,21.85
2023-03-29T18:19:47.367Z,21.58
2023-03-29T18:23:59.825Z,21.70
2023-03-29T18:28:12.232Z,22.25
2023-03-29T18:32:25.421Z,18.73
2023-03-29T18:36:37.995Z,22.63
2023-03-29T18:40:52.259Z,15.55
2023-03-29T18:45:05.342Z,10.75
2023-03-29T18:49:17.744Z,8.90
2023-03-29T18:53:30.108Z,9.43
2023-03-29T18:57:45.307Z,13.20
2023-03-29T19:01:57.692Z,12.48
2023-03-29T19:06:10.324Z,11.43
2023-03-29T19:10:24.885Z,10.85
2023-03-29T19:14:37.285Z,11.65
2023-03-29T19:18:49.758Z,10.77
2023-03-29T19:23:03.868Z,13.00
2023-03-29T19:27:16.242Z,11.00
2023-03-29T19:31:28.820Z,9.32
2023-03-29T19:35:41.820Z,8.57
2023-03-29T19:39:55.926Z,7.85
2023-03-29T19:44:08.470Z,6.85
2023-03-29T19:48:23.845Z,6.15
2023-03-29T19:52:37.091Z,7.00
2023-03-29T19:56:52.401Z,6.25
2023-03-29T20:01:05.431Z,6.47
2023-03-29T20:05:23.769Z,5.82
2023-03-29T20:09:36.842Z,6.07
2023-03-29T20:13:49.252Z,8.40
2023-03-29T20:18:02.017Z,6.45
2023-03-29T20:22:14.594Z,7.55
2023-03-29T20:26:28.326Z,5.53
2023-03-29T20:30:41.614Z,5.93
2023-03-29T20:34:54.666Z,6.25
2023-03-29T20:39:08.305Z,6.10
2023-03-29T20:43:20.680Z,7.18
2023-03-29T20:47:33.181Z,4.78
2023-03-29T20:51:58.484Z,5.95
2023-03-29T20:56:10.898Z,8.93
2023-03-29T21:00:24.117Z,4.38
2023-03-29T21:04:37.142Z,4.78
2023-03-29T21:08:50.652Z,3.72
2023-03-29T21:13:03.106Z,4.20
2023-03-29T21:17:15.676Z,4.10
2023-03-29T21:21:29.892Z,3.75
2023-03-29T21:25:44.083Z,3.80
2023-03-29T21:29:56.600Z,4.00
2023-03-29T21:34:09.279Z,3.63
2023-03-29T21:38:24.022Z,3.53
2023-03-29T21:42:36.977Z,3.85
2023-03-29T21:46:49.343Z,4.05
2023-03-29T21:51:02.029Z,3.80
2023-03-29T21:55:15.391Z,4.07
2023-03-29T21:59:28.118Z,3.85
2023-03-29T22:03:40.547Z,4.25
2023-03-29T22:07:53.196Z,3.58
2023-03-29T22:12:05.648Z,3.70
2023-03-29T22:16:19.567Z,3.90
2023-03-29T22:20:34.507Z,4.05
2023-03-29T22:24:46.907Z,4.20
2023-03-29T22:29:00.555Z,3.70
2023-03-29T22:33:13.035Z,3.00
2023-03-29T22:37:25.565Z,3.20
2023-03-29T22:41:38.038Z,3.03
2023-03-29T22:45:50.573Z,3.13
2023-03-29T22:50:03.090Z,2.90
2023-03-29T22:54:15.485Z,3.25
2023-03-29T22:58:29.687Z,2.63
2023-03-29T23:02:42.124Z,2.58
2023-03-29T23:06:54.485Z,3.90
2023-03-29T23:11:07.574Z,2.55
2023-03-29T23:15:23.093Z,2.47
2023-03-29T23:19:36.444Z,2.53
2023-03-29T23:23:49.790Z,2.97
2023-03-29T23:28:03.569Z,2.30
2023-03-29T23:32:16.071Z,2.50
2023-03-29T23:36:31.407Z,2.47
2023-03-29T23:40:43.923Z,3.15
2023-03-29T23:44:56.260Z,2.78
2023-03-29T23:49:10.198Z,2.65
2023-03-29T23:53:25.021Z,2.65
2023-03-29T23:57:39.320Z,0.93
